Terminal Aerodrome Forecast
Issued by NWS

Home | Current Version | Previous Version | Text Only | Print | Product List | Glossary On
Versions: 1 2 3 4 5 6 7 8 9 10 11 12 13 14 15 16 17 18
197
FTUS43 KDLH 212329
TAFBRD
TAF
KBRD 212329Z 2200/2224 17009G21KT P6SM SKC
     FM220200 16005KT P6SM VCSH BKN050
     FM220600 VRB03KT 4SM BR BKN030
     FM221000 VRB03KT 5SM BR SKC
     FM221300 31004KT P6SM BKN200
     FM221900 20008KT P6SM SCT100=

USA.gov is the U.S. government's official web portal to all federal, state and local government web resources and services.